Ana Sayfa
METAR-TAF:

METAR-TAF

Havaalanları :

Phoenix Goodyear Airport

Goodyear, Arizona, Amerika Birleşik Devletleri

Enlem: 33-25N, Boylam: 112-23W, yükseklik: 295 m

Güncel hava durumu gözlemi

Rapor saat 03:47 UTC de 4 saat ve 24 dakika önce yapıldı.
Rüzgar doğudan 6 kt
Sıcaklık 13°C
Nem 72%
Basınç 1016 hPa
Görüş mesafesi: 16.1 km
25000 ft yükseklikte az bulutlu

METAR: KGYR 140347Z 09006KT 10SM FEW250 13/08 A3001 RMK LAST

Saat: 01:11 (08:11 UTC)


TAF: eksik

4.000'den fazla havaalanı için hava durumu gözlemleri ve tahminleri (METAR ve TAF raporları).

Kullanılabilir istasyonlar harita üzerinde sarı ve kırmızı noktalarla gösterilir.

İstasyonun adını görmek için fareyi noktanın üzerinde gezdirin.

Sonrasında hava gözlem ve tahminlerini görmek için tıklayın.

Haritayı değiştirmek için: yaklaştırmak için siyah artı işaretli yeşil düğmeye ve uzaklaştırmak için de eksi işaretli düğmeye hızla tıklayın; bitişik haritalar için yeşil okları kullanın.


METAR-TAF: